Time;durP1;ratioP1;P1;durP2;ratioP2;P2;SDS_P1;SDS_P2;PMS_P1;PMS_P2;Temp;Humidity;BMP_temperature;BMP_pressure;BME280_temperature;BME280_humidity;BME280_pressure;Samples;Min_cycle;Max_cycle;Signal;HPM_P1;HPM_P2
2021/12/12 00:02:08;;;;;;;19.50;10.70;;;;;;;;;;5023329;28;20048;-72
2021/12/12 00:04:36;;;;;;;19.00;10.88;;;;;;;;;;5005869;28;20030;-71
2021/12/12 00:07:08;;;;;;;20.92;11.40;;;;;;;;;;5023773;28;20045;-71
2021/12/12 00:09:39;;;;;;;23.10;11.55;;;;;;;;;;5023775;28;20037;-72
2021/12/12 00:12:11;;;;;;;22.30;11.18;;;;;;;;;;5023237;28;20025;-71
2021/12/12 00:14:37;;;;;;;22.45;13.10;;;;;;;;;;5023194;28;20033;-71
2021/12/12 00:17:08;;;;;;;21.73;11.45;;;;;;;;;;5023115;28;20076;-72
2021/12/12 00:19:35;;;;;;;20.08;11.60;;;;;;;;;;5023110;28;20105;-72
2021/12/12 00:22:05;;;;;;;23.10;11.85;;;;;;;;;;5023144;28;20022;-72
2021/12/12 00:24:30;;;;;;;20.05;11.63;;;;;;;;;;5023244;28;20030;-71
2021/12/12 00:26:57;;;;;;;21.73;11.50;;;;;;;;;;5005063;28;20022;-73
2021/12/12 00:29:24;;;;;;;19.52;10.77;;;;;;;;;;5023267;28;20034;-72
2021/12/12 00:31:53;;;;;;;21.30;10.85;;;;;;;;;;5004878;28;20088;-73
2021/12/12 00:34:20;;;;;;;22.45;11.80;;;;;;;;;;5023170;28;20436;-71
2021/12/12 00:36:45;;;;;;;22.50;11.02;;;;;;;;;;5022842;28;20036;-72
2021/12/12 00:39:20;;;;;;;20.55;10.27;;;;;;;;;;5005172;28;20030;-72
2021/12/12 00:41:57;;;;;;;22.55;10.43;;;;;;;;;;5022873;28;20041;-72
2021/12/12 00:44:24;;;;;;;20.88;10.25;;;;;;;;;;5004739;28;20084;-74
2021/12/12 00:46:52;;;;;;;23.38;10.52;;;;;;;;;;5005007;28;20030;-75
2021/12/12 00:49:18;;;;;;;24.05;11.40;;;;;;;;;;5022569;28;20046;-71
2021/12/12 00:51:46;;;;;;;23.20;12.80;;;;;;;;;;5022782;28;20026;-72
2021/12/12 00:54:14;;;;;;;26.67;13.88;;;;;;;;;;5021402;28;20081;-73
2021/12/12 00:56:40;;;;;;;27.05;14.70;;;;;;;;;;5021115;28;20026;-72
2021/12/12 00:59:07;;;;;;;24.30;13.45;;;;;;;;;;5022092;28;20038;-74
2021/12/12 01:01:39;;;;;;;24.15;13.98;;;;;;;;;;5021758;28;20037;-72
2021/12/12 01:04:28;;;;;;;23.95;13.85;;;;;;;;;;5021769;28;20062;-71
2021/12/12 01:06:59;;;;;;;28.20;14.63;;;;;;;;;;5022362;28;20041;-72
2021/12/12 01:09:30;;;;;;;30.45;15.77;;;;;;;;;;5004989;28;20034;-72
2021/12/12 01:12:00;;;;;;;30.58;16.38;;;;;;;;;;5025788;28;20089;-71
2021/12/12 01:14:34;;;;;;;28.95;15.50;;;;;;;;;;5026710;28;20125;-73
2021/12/12 01:17:19;;;;;;;25.08;14.95;;;;;;;;;;5026620;28;20061;-71
2021/12/12 01:19:59;;;;;;;27.63;14.70;;;;;;;;;;5026070;28;20029;-73
2021/12/12 01:22:33;;;;;;;31.45;15.52;;;;;;;;;;5026505;28;20080;-74
2021/12/12 01:25:06;;;;;;;33.20;16.35;;;;;;;;;;5008650;28;20061;-72
2021/12/12 01:27:32;;;;;;;28.48;15.27;;;;;;;;;;5025895;28;20026;-72
2021/12/12 01:29:57;;;;;;;25.27;14.70;;;;;;;;;;5025926;28;20034;-72
2021/12/12 01:32:28;;;;;;;29.25;15.57;;;;;;;;;;5025980;28;20022;-70
2021/12/12 01:34:56;;;;;;;29.25;14.70;;;;;;;;;;5025952;28;20044;-72
2021/12/12 01:40:15;;;;;;;31.13;14.75;;;;;;;;;;5025742;28;20037;-71
2021/12/12 01:42:53;;;;;;;26.98;14.60;;;;;;;;;;5025256;28;20042;-71
2021/12/12 01:45:27;;;;;;;27.17;13.75;;;;;;;;;;5025732;28;20030;-72
2021/12/12 01:48:02;;;;;;;28.38;13.18;;;;;;;;;;5025619;28;20110;-71
2021/12/12 01:50:40;;;;;;;29.65;13.90;;;;;;;;;;5025931;28;20282;-71
2021/12/12 01:53:10;;;;;;;25.73;13.23;;;;;;;;;;5025484;28;20037;-73
2021/12/12 01:55:46;;;;;;;27.20;14.07;;;;;;;;;;5025972;28;20061;-72
2021/12/12 01:58:17;;;;;;;26.38;13.02;;;;;;;;;;5007532;28;20041;-71
2021/12/12 02:01:06;;;;;;;26.48;12.98;;;;;;;;;;5025629;28;20037;-71
2021/12/12 02:03:35;;;;;;;25.98;13.10;;;;;;;;;;5011157;28;20045;-73
2021/12/12 02:06:02;;;;;;;25.95;13.63;;;;;;;;;;5025967;28;20034;-73
2021/12/12 02:08:30;;;;;;;23.90;11.57;;;;;;;;;;5025194;28;20105;-72
2021/12/12 02:11:01;;;;;;;23.77;12.85;;;;;;;;;;5025422;28;20481;-72
2021/12/12 02:13:29;;;;;;;26.38;13.00;;;;;;;;;;5007450;28;20030;-72
2021/12/12 02:15:57;;;;;;;23.23;11.70;;;;;;;;;;5007740;28;20065;-71
2021/12/12 02:18:29;;;;;;;24.15;12.23;;;;;;;;;;5025207;28;20052;-71
2021/12/12 02:21:18;;;;;;;29.75;12.23;;;;;;;;;;5025467;28;20084;-72
2021/12/12 02:37:15;;;;;;;27.25;12.95;;;;;;;;;;5024230;28;20088;-72
2021/12/12 02:39:41;;;;;;;27.10;13.55;;;;;;;;;;5025037;28;20037;-72
2021/12/12 02:42:11;;;;;;;26.02;12.95;;;;;;;;;;5024700;28;20030;-71
2021/12/12 02:44:39;;;;;;;22.75;11.88;;;;;;;;;;5024978;28;20030;-71
2021/12/12 02:47:13;;;;;;;22.65;12.07;;;;;;;;;;5024497;28;20037;-72
2021/12/12 02:49:54;;;;;;;;;;;;;;;;;;5024999;28;20049;-72
2021/12/12 02:52:27;;;;;;;25.95;11.98;;;;;;;;;;5024491;28;19913;-71
2021/12/12 02:55:05;;;;;;;28.50;11.82;;;;;;;;;;5024408;28;20052;-71
2021/12/12 02:57:30;;;;;;;26.80;12.05;;;;;;;;;;5006404;28;20034;-72
2021/12/12 02:59:57;;;;;;;26.80;12.05;;;;;;;;;;5024259;28;20032;-71
2021/12/12 03:02:39;;;;;;;26.27;12.75;;;;;;;;;;5023994;28;20510;-71
2021/12/12 03:05:07;;;;;;;25.23;12.20;;;;;;;;;;5024288;28;20298;-72
2021/12/12 03:07:32;;;;;;;29.80;12.38;;;;;;;;;;5006538;28;20426;-72
2021/12/12 03:09:59;;;;;;;25.10;12.40;;;;;;;;;;5024425;28;20025;-72
2021/12/12 03:12:33;;;;;;;25.23;12.18;;;;;;;;;;5024098;28;20121;-72
2021/12/12 03:15:08;;;;;;;33.55;11.88;;;;;;;;;;5024352;28;20030;-72
2021/12/12 03:17:36;;;;;;;26.23;11.20;;;;;;;;;;5024203;28;20030;-71
2021/12/12 03:20:23;;;;;;;25.95;12.15;;;;;;;;;;5006431;28;20022;-72
2021/12/12 03:22:52;;;;;;;23.13;11.10;;;;;;;;;;5023831;28;20494;-72
2021/12/12 03:25:18;;;;;;;27.45;9.68;;;;;;;;;;5006557;28;20173;-71
2021/12/12 03:27:43;;;;;;;19.48;8.40;;;;;;;;;;5023575;28;20097;-71
2021/12/12 03:30:09;;;;;;;18.50;8.13;;;;;;;;;;5024032;28;20033;-71
2021/12/12 03:32:35;;;;;;;16.25;7.18;;;;;;;;;;5023748;28;20080;-72
2021/12/12 03:35:01;;;;;;;11.35;5.60;;;;;;;;;;5023360;28;20026;-71
2021/12/12 03:37:30;;;;;;;13.70;4.95;;;;;;;;;;5023415;28;20071;-72
2021/12/12 03:39:57;;;;;;;11.88;5.45;;;;;;;;;;5023394;28;20033;-71
2021/12/12 03:42:27;;;;;;;11.38;5.10;;;;;;;;;;5023528;28;20512;-71
2021/12/12 03:44:53;;;;;;;13.68;5.45;;;;;;;;;;5023405;28;20069;-71
2021/12/12 03:47:21;;;;;;;14.27;5.70;;;;;;;;;;5023324;28;20034;-71
2021/12/12 03:49:47;;;;;;;11.77;4.80;;;;;;;;;;5023668;28;20398;-73
2021/12/12 03:52:15;;;;;;;12.07;4.85;;;;;;;;;;5023481;28;20045;-71
2021/12/12 03:54:41;;;;;;;13.90;5.40;;;;;;;;;;5023402;28;20037;-72
2021/12/12 03:57:07;;;;;;;11.07;4.88;;;;;;;;;;5005621;28;20030;-71
2021/12/12 03:59:33;;;;;;;12.80;5.20;;;;;;;;;;5005772;28;20034;-71
2021/12/12 04:01:59;;;;;;;17.55;6.35;;;;;;;;;;5023619;28;20458;-72
2021/12/12 04:04:31;;;;;;;17.35;6.88;;;;;;;;;;5023469;28;20123;-72
2021/12/12 04:06:59;;;;;;;17.27;6.20;;;;;;;;;;5023260;28;20040;-71
2021/12/12 04:09:25;;;;;;;16.30;6.65;;;;;;;;;;5023609;28;20467;-71
2021/12/12 04:11:55;;;;;;;19.38;6.57;;;;;;;;;;5005631;28;20034;-71
2021/12/12 04:14:22;;;;;;;16.48;6.93;;;;;;;;;;5023122;28;20519;-73
2021/12/12 04:16:51;;;;;;;18.08;8.10;;;;;;;;;;5022600;28;20038;-71
2021/12/12 04:19:17;;;;;;;18.27;8.02;;;;;;;;;;5023374;28;20025;-71
2021/12/12 04:21:43;;;;;;;18.40;7.43;;;;;;;;;;5005730;28;20519;-72
2021/12/12 04:24:09;;;;;;;17.38;6.95;;;;;;;;;;5023122;28;20026;-74
2021/12/12 04:26:40;;;;;;;20.13;7.90;;;;;;;;;;5022768;28;20046;-71
2021/12/12 04:29:16;;;;;;;18.63;7.85;;;;;;;;;;5023192;28;20026;-72
2021/12/12 04:31:46;;;;;;;16.42;7.18;;;;;;;;;;5023006;28;20052;-71
2021/12/12 04:34:12;;;;;;;16.40;6.82;;;;;;;;;;5023042;28;20079;-72
2021/12/12 04:36:43;;;;;;;15.05;7.05;;;;;;;;;;5023102;28;20361;-71
2021/12/12 04:39:17;;;;;;;18.23;7.15;;;;;;;;;;5004954;28;20030;-72
2021/12/12 04:41:45;;;;;;;18.95;7.38;;;;;;;;;;5023282;28;20097;-72
2021/12/12 04:44:11;;;;;;;17.58;6.72;;;;;;;;;;5022908;28;20471;-72
2021/12/12 04:49:55;;;;;;;16.60;7.38;;;;;;;;;;5026837;28;20088;-71
2021/12/12 04:52:26;;;;;;;19.30;8.02;;;;;;;;;;5026862;28;20121;-71
2021/12/12 04:55:06;;;;;;;17.77;7.60;;;;;;;;;;5027269;28;20056;-71
2021/12/12 04:57:55;;;;;;;15.52;7.38;;;;;;;;;;5026269;28;20037;-71
2021/12/12 05:00:25;;;;;;;18.15;7.63;;;;;;;;;;5026397;28;20037;-72
2021/12/12 05:02:58;;;;;;;14.48;7.25;;;;;;;;;;5008918;28;20052;-71
2021/12/12 05:05:33;;;;;;;18.20;6.85;;;;;;;;;;5008902;28;20037;-71
2021/12/12 05:08:25;;;;;;;15.43;6.93;;;;;;;;;;5026271;28;20026;-72
2021/12/12 05:10:58;;;;;;;18.73;7.65;;;;;;;;;;5026705;28;20038;-72
2021/12/12 05:13:48;;;;;;;16.85;7.30;;;;;;;;;;5026401;28;20061;-72
2021/12/12 05:16:23;;;;;;;19.23;7.13;;;;;;;;;;5008858;28;20038;-71
2021/12/12 05:18:52;;;;;;;17.42;7.22;;;;;;;;;;5026196;28;20034;-72
2021/12/12 05:21:25;;;;;;;18.52;7.57;;;;;;;;;;5026414;28;20026;-71
2021/12/12 05:23:55;;;;;;;16.97;7.47;;;;;;;;;;5026371;28;20022;-71
2021/12/12 05:26:35;;;;;;;14.60;7.38;;;;;;;;;;5026233;28;20326;-73
2021/12/12 05:29:17;;;;;;;19.92;7.78;;;;;;;;;;5025975;28;20026;-71
2021/12/12 05:31:47;;;;;;;16.63;7.50;;;;;;;;;;5026053;28;20033;-71
2021/12/12 05:34:16;;;;;;;16.95;7.43;;;;;;;;;;5025900;28;20066;-72
2021/12/12 05:36:42;;;;;;;16.02;8.00;;;;;;;;;;5025667;28;20026;-71
2021/12/12 05:39:08;;;;;;;19.27;8.23;;;;;;;;;;5025801;28;20084;-72
2021/12/12 05:41:34;;;;;;;18.02;7.18;;;;;;;;;;5008338;28;20030;-71
2021/12/12 05:44:02;;;;;;;20.08;7.55;;;;;;;;;;5007939;28;20030;-71
2021/12/12 05:46:27;;;;;;;18.08;7.78;;;;;;;;;;5008235;28;20552;-72
2021/12/12 05:48:53;;;;;;;18.30;7.82;;;;;;;;;;5025583;28;20045;-72
2021/12/12 05:51:20;;;;;;;15.10;7.38;;;;;;;;;;5025868;28;20034;-71
2021/12/12 05:53:48;;;;;;;14.80;6.93;;;;;;;;;;5025342;28;20053;-73
2021/12/12 05:56:15;;;;;;;14.55;7.63;;;;;;;;;;5007942;28;20121;-73
2021/12/12 05:58:41;;;;;;;11.80;6.45;;;;;;;;;;5025498;28;20037;-72
2021/12/12 06:01:10;;;;;;;12.60;6.13;;;;;;;;;;5025739;28;20034;-73
2021/12/12 06:03:39;;;;;;;15.55;7.00;;;;;;;;;;5025340;28;20052;-72
2021/12/12 06:06:09;;;;;;;13.18;6.43;;;;;;;;;;5025629;28;20033;-73
2021/12/12 06:08:35;;;;;;;14.38;6.53;;;;;;;;;;5007446;28;20505;-71
2021/12/12 06:11:02;;;;;;;13.48;6.55;;;;;;;;;;5025524;28;20033;-72
2021/12/12 06:13:29;;;;;;;14.18;6.95;;;;;;;;;;5007731;28;20033;-72
2021/12/12 06:15:56;;;;;;;15.73;6.70;;;;;;;;;;5025480;28;20060;-72
2021/12/12 06:18:25;;;;;;;13.65;6.53;;;;;;;;;;5025358;28;20038;-71
2021/12/12 06:20:51;;;;;;;15.38;7.70;;;;;;;;;;5025614;28;20033;-72
2021/12/12 06:23:17;;;;;;;13.80;7.10;;;;;;;;;;5007453;28;20028;-72
2021/12/12 06:25:44;;;;;;;19.40;7.05;;;;;;;;;;5007248;28;20040;-73
2021/12/12 06:28:20;;;;;;;15.23;6.40;;;;;;;;;;5024726;28;20042;-74
2021/12/12 06:30:47;;;;;;;16.27;7.32;;;;;;;;;;5025161;28;20038;-71
2021/12/12 06:33:13;;;;;;;18.75;7.43;;;;;;;;;;5025019;28;20045;-71
2021/12/12 06:35:39;;;;;;;15.40;7.38;;;;;;;;;;5025213;28;20030;-72
2021/12/12 06:38:10;;;;;;;19.13;7.55;;;;;;;;;;5006725;28;20030;-74
2021/12/12 06:40:36;;;;;;;16.83;7.53;;;;;;;;;;5025277;28;20100;-74
2021/12/12 06:43:08;;;;;;;15.00;7.68;;;;;;;;;;5024992;28;20029;-72
2021/12/12 06:45:34;;;;;;;13.93;7.50;;;;;;;;;;5007309;28;20110;-74
2021/12/12 06:48:06;;;;;;;14.32;7.18;;;;;;;;;;5024582;28;20548;-72
2021/12/12 06:50:33;;;;;;;18.15;8.07;;;;;;;;;;5024850;28;20026;-72
2021/12/12 06:52:59;;;;;;;15.82;7.68;;;;;;;;;;5024278;28;20040;-73
2021/12/12 06:55:25;;;;;;;15.48;8.10;;;;;;;;;;5024276;28;20034;-72
2021/12/12 06:57:51;;;;;;;19.90;8.57;;;;;;;;;;5024431;28;20026;-72
2021/12/12 07:00:21;;;;;;;15.63;8.45;;;;;;;;;;5006605;28;20459;-72
2021/12/12 07:02:47;;;;;;;21.02;8.73;;;;;;;;;;5006413;28;20109;-73
2021/12/12 07:05:17;;;;;;;20.88;9.50;;;;;;;;;;5006759;28;20056;-72
2021/12/12 07:07:45;;;;;;;18.48;9.48;;;;;;;;;;5006017;28;20121;-72
2021/12/12 07:10:13;;;;;;;20.13;9.27;;;;;;;;;;5024073;28;20030;-74
2021/12/12 07:12:40;;;;;;;18.98;9.02;;;;;;;;;;5024195;28;20544;-72
2021/12/12 07:15:13;;;;;;;22.30;9.38;;;;;;;;;;5024291;28;20030;-71
2021/12/12 07:17:39;;;;;;;20.30;8.45;;;;;;;;;;5023862;28;20037;-71
2021/12/12 07:20:08;;;;;;;18.38;8.73;;;;;;;;;;5006354;28;20026;-72
2021/12/12 07:22:34;;;;;;;16.15;8.30;;;;;;;;;;5006459;28;20037;-71
2021/12/12 07:25:01;;;;;;;14.38;7.68;;;;;;;;;;5024659;28;20026;-71
2021/12/12 07:27:27;;;;;;;14.82;6.65;;;;;;;;;;5024334;28;20030;-72
2021/12/12 07:29:55;;;;;;;13.10;6.38;;;;;;;;;;5024401;28;20101;-72
2021/12/12 07:32:21;;;;;;;12.23;6.47;;;;;;;;;;5024420;28;20466;-71
2021/12/12 07:34:47;;;;;;;13.85;6.45;;;;;;;;;;5024306;28;20029;-72
2021/12/12 07:37:13;;;;;;;15.43;6.75;;;;;;;;;;5024198;28;20026;-73
2021/12/12 07:39:41;;;;;;;11.90;6.05;;;;;;;;;;5024455;28;20026;-71
2021/12/12 07:42:08;;;;;;;10.93;6.38;;;;;;;;;;5023957;28;20065;-71
2021/12/12 07:44:36;;;;;;;14.80;6.18;;;;;;;;;;5023966;28;20042;-71
2021/12/12 07:47:04;;;;;;;12.55;5.80;;;;;;;;;;5023694;28;20033;-70
2021/12/12 07:49:33;;;;;;;10.20;5.13;;;;;;;;;;5023543;28;20081;-73
2021/12/12 07:52:00;;;;;;;9.85;4.72;;;;;;;;;;5023174;28;20030;-71
2021/12/12 07:54:26;;;;;;;8.43;4.57;;;;;;;;;;5005307;28;20034;-71
2021/12/12 07:56:52;;;;;;;8.27;3.85;;;;;;;;;;5004419;28;20026;-71
2021/12/12 07:59:19;;;;;;;9.75;4.65;;;;;;;;;;5005973;28;20117;-72
2021/12/12 08:01:48;;;;;;;8.48;3.80;;;;;;;;;;5023204;28;20041;-71
2021/12/12 08:04:24;;;;;;;8.65;3.90;;;;;;;;;;5005092;28;20055;-71
2021/12/12 08:06:52;;;;;;;7.47;4.22;;;;;;;;;;5004427;28;20029;-71
2021/12/12 08:09:20;;;;;;;8.50;4.03;;;;;;;;;;5023286;28;20117;-72
2021/12/12 08:11:46;;;;;;;9.48;4.78;;;;;;;;;;5023835;28;20038;-71
2021/12/12 08:14:17;;;;;;;9.23;4.38;;;;;;;;;;5006417;28;20034;-71
2021/12/12 08:16:45;;;;;;;8.50;4.22;;;;;;;;;;5024249;28;20034;-71
2021/12/12 08:19:11;;;;;;;9.18;4.45;;;;;;;;;;5023775;28;20057;-71
2021/12/12 08:21:38;;;;;;;10.18;4.60;;;;;;;;;;5023275;28;20046;-72
2021/12/12 08:24:09;;;;;;;9.32;4.75;;;;;;;;;;5023403;28;20043;-72
2021/12/12 08:26:37;;;;;;;10.82;5.22;;;;;;;;;;5005559;28;20386;-72
2021/12/12 08:29:08;;;;;;;10.20;4.97;;;;;;;;;;5022679;28;20046;-72
2021/12/12 08:31:34;;;;;;;11.45;5.10;;;;;;;;;;5023054;28;20038;-72
2021/12/12 08:34:01;;;;;;;8.55;4.72;;;;;;;;;;5023145;28;20042;-72
2021/12/12 08:36:27;;;;;;;12.00;5.25;;;;;;;;;;5022543;28;20034;-73
2021/12/12 08:38:53;;;;;;;10.38;4.75;;;;;;;;;;5022757;28;20042;-73
2021/12/12 08:41:20;;;;;;;8.35;4.63;;;;;;;;;;5022320;28;20040;-72
2021/12/12 08:43:45;;;;;;;10.73;4.72;;;;;;;;;;5022195;28;20034;-73
2021/12/12 08:46:13;;;;;;;11.32;5.32;;;;;;;;;;5021606;28;20030;-72
2021/12/12 08:48:42;;;;;;;10.43;5.10;;;;;;;;;;5022192;28;20045;-72
2021/12/12 08:51:13;;;;;;;10.43;5.05;;;;;;;;;;5021865;28;20038;-73
2021/12/12 08:53:40;;;;;;;9.48;5.00;;;;;;;;;;5022970;28;20089;-72
2021/12/12 08:56:09;;;;;;;12.25;5.70;;;;;;;;;;5023861;28;20032;-72
2021/12/12 08:58:35;;;;;;;10.32;5.35;;;;;;;;;;5023509;28;20030;-73
2021/12/12 09:01:06;;;;;;;12.43;6.03;;;;;;;;;;5006403;28;20532;-73
2021/12/12 09:03:45;;;;;;;13.07;6.28;;;;;;;;;;5023480;28;20033;-73
2021/12/12 09:06:14;;;;;;;13.95;6.80;;;;;;;;;;5024145;28;20052;-72
2021/12/12 09:08:43;;;;;;;11.75;5.97;;;;;;;;;;5023746;28;20065;-72
2021/12/12 09:11:30;;;;;;;11.45;5.30;;;;;;;;;;5023855;28;20022;-72
2021/12/12 09:14:02;;;;;;;10.25;5.60;;;;;;;;;;5023632;28;20033;-72
2021/12/12 09:16:42;;;;;;;7.93;4.32;;;;;;;;;;5023783;28;20032;-72
2021/12/12 09:19:25;;;;;;;8.18;3.92;;;;;;;;;;5005796;28;20102;-72
2021/12/12 09:22:02;;;;;;;5.88;3.65;;;;;;;;;;5023728;28;20061;-72
2021/12/12 09:24:30;;;;;;;7.63;4.28;;;;;;;;;;5023712;28;20041;-72
2021/12/12 09:27:01;;;;;;;8.25;4.13;;;;;;;;;;5023555;28;20034;-71
2021/12/12 09:29:39;;;;;;;7.32;3.58;;;;;;;;;;5023745;28;20026;-71
2021/12/12 09:32:12;;;;;;;6.53;3.85;;;;;;;;;;5025302;28;20030;-71
2021/12/12 09:34:43;;;;;;;7.72;3.67;;;;;;;;;;5027137;28;20057;-71
2021/12/12 09:37:34;;;;;;;5.78;3.17;;;;;;;;;;5027206;28;20046;-72
2021/12/12 09:40:11;;;;;;;6.40;3.55;;;;;;;;;;5027026;28;20057;-72
2021/12/12 09:42:49;;;;;;;6.25;3.40;;;;;;;;;;5026940;28;20106;-72
2021/12/12 09:45:35;;;;;;;7.82;4.38;;;;;;;;;;5027089;28;20034;-72
2021/12/12 09:51:14;;;;;;;5.72;3.60;;;;;;;;;;5026802;28;20121;-72
2021/12/12 09:51:29;;;;;;;8.30;3.60;;;;;;;;;;5023804;28;20399;-72
2021/12/12 09:54:13;;;;;;;5.72;3.33;;;;;;;;;;5026685;28;20034;-72
2021/12/12 09:56:45;;;;;;;7.45;3.47;;;;;;;;;;5026648;28;20034;-72
2021/12/12 09:59:54;;;;;;;5.95;3.53;;;;;;;;;;5026424;28;20030;-74
2021/12/12 10:02:29;;;;;;;6.88;3.67;;;;;;;;;;5009041;28;20470;-72
2021/12/12 10:05:15;;;;;;;6.88;4.15;;;;;;;;;;5008881;28;20033;-72
2021/12/12 10:07:50;;;;;;;6.00;3.92;;;;;;;;;;5009091;28;20056;-72
2021/12/12 10:10:30;;;;;;;6.40;4.00;;;;;;;;;;5008670;28;20089;-72
2021/12/12 10:13:24;;;;;;;6.70;4.00;;;;;;;;;;5008772;28;20377;-73
2021/12/12 10:15:59;;;;;;;6.40;4.32;;;;;;;;;;5026661;28;20504;-71
2021/12/12 10:18:35;;;;;;;6.78;4.13;;;;;;;;;;5025680;28;20052;-72
2021/12/12 10:21:08;;;;;;;6.30;3.95;;;;;;;;;;5009000;28;20097;-72
2021/12/12 10:24:02;;;;;;;8.02;4.10;;;;;;;;;;5026310;28;20033;-72
2021/12/12 10:26:59;;;;;;;5.63;3.65;;;;;;;;;;5025239;28;20089;-72
2021/12/12 10:29:31;;;;;;;4.60;3.28;;;;;;;;;;4987717;28;20033;-71
2021/12/12 10:32:06;;;;;;;5.60;3.43;;;;;;;;;;5025686;28;20030;-71
2021/12/12 10:35:07;;;;;;;5.40;3.10;;;;;;;;;;5008443;28;20652;-71
2021/12/12 10:37:41;;;;;;;5.13;3.22;;;;;;;;;;5002193;28;20046;-72
2021/12/12 10:40:14;;;;;;;5.15;2.78;;;;;;;;;;5026035;28;20026;-72
2021/12/12 10:42:54;;;;;;;4.18;2.35;;;;;;;;;;5007652;28;20544;-71
2021/12/12 10:45:33;;;;;;;5.72;3.05;;;;;;;;;;5026013;28;20414;-71
2021/12/12 10:48:11;;;;;;;6.28;3.28;;;;;;;;;;5025917;28;20045;-71
2021/12/12 10:51:00;;;;;;;6.15;3.30;;;;;;;;;;5025981;28;20032;-71
2021/12/12 10:53:41;;;;;;;6.85;3.60;;;;;;;;;;5007629;28;20030;-71
2021/12/12 10:56:19;;;;;;;4.97;3.10;;;;;;;;;;5025793;28;20026;-72
2021/12/12 10:58:48;;;;;;;5.45;3.47;;;;;;;;;;5025359;28;20041;-72
2021/12/12 11:01:23;;;;;;;5.18;3.25;;;;;;;;;;5007832;28;20037;-72
2021/12/12 11:03:54;;;;;;;5.80;3.50;;;;;;;;;;5025121;28;20060;-71
2021/12/12 11:06:30;;;;;;;6.38;3.72;;;;;;;;;;5025865;28;20270;-71
2021/12/12 11:09:03;;;;;;;5.13;3.08;;;;;;;;;;5025293;28;20057;-71
2021/12/12 11:11:34;;;;;;;6.10;3.90;;;;;;;;;;5007633;28;20101;-71
2021/12/12 11:14:24;;;;;;;5.50;3.35;;;;;;;;;;5025353;28;20080;-71
2021/12/12 11:17:19;;;;;;;5.47;3.35;;;;;;;;;;5025310;28;20030;-72
2021/12/12 11:19:50;;;;;;;6.70;3.05;;;;;;;;;;5018906;28;20484;-71
2021/12/12 11:22:22;;;;;;;5.20;3.50;;;;;;;;;;5024727;28;20122;-71
2021/12/12 11:24:56;;;;;;;5.45;2.83;;;;;;;;;;5024695;28;20033;-71
2021/12/12 11:27:28;;;;;;;6.05;3.67;;;;;;;;;;5024915;28;20022;-71
2021/12/12 11:30:03;;;;;;;7.57;3.60;;;;;;;;;;5007088;28;20551;-71
2021/12/12 11:32:33;;;;;;;6.45;3.22;;;;;;;;;;5024548;28;20061;-71
2021/12/12 11:34:59;;;;;;;5.93;3.45;;;;;;;;;;5007172;28;20061;-71
2021/12/12 11:37:34;;;;;;;6.90;4.03;;;;;;;;;;5006746;28;20030;-71
2021/12/12 11:40:07;;;;;;;5.07;3.28;;;;;;;;;;5024920;28;20025;-71
2021/12/12 11:42:43;;;;;;;6.95;3.40;;;;;;;;;;5024545;28;20037;-71
2021/12/12 11:45:20;;;;;;;5.28;3.38;;;;;;;;;;5024622;28;20045;-71
2021/12/12 11:48:15;;;;;;;8.20;3.85;;;;;;;;;;5024001;28;20041;-71
2021/12/12 11:50:46;;;;;;;5.97;3.83;;;;;;;;;;5024436;28;20109;-71
2021/12/12 11:53:23;;;;;;;5.03;3.35;;;;;;;;;;5024350;28;20026;-71
2021/12/12 11:56:04;;;;;;;5.70;3.55;;;;;;;;;;5024439;28;20109;-71
2021/12/12 11:58:38;;;;;;;5.97;3.58;;;;;;;;;;5024523;28;20032;-72
2021/12/12 12:01:13;;;;;;;7.15;3.33;;;;;;;;;;5024488;28;20073;-71
2021/12/12 12:04:02;;;;;;;5.82;3.70;;;;;;;;;;5006254;28;20030;-71
2021/12/12 12:06:27;;;;;;;6.35;3.45;;;;;;;;;;5024373;28;20094;-71
2021/12/12 12:09:27;;;;;;;4.75;3.25;;;;;;;;;;5024314;28;20026;-70
2021/12/12 12:12:10;;;;;;;5.45;3.33;;;;;;;;;;5006204;28;20044;-71
2021/12/12 12:14:52;;;;;;;4.95;2.90;;;;;;;;;;5024318;28;20044;-71
2021/12/12 12:17:31;;;;;;;6.65;3.15;;;;;;;;;;5024161;28;20038;-71
2021/12/12 12:20:00;;;;;;;5.75;3.53;;;;;;;;;;5024259;28;20030;-70
2021/12/12 12:22:47;;;;;;;5.03;3.25;;;;;;;;;;5024079;28;20041;-71
2021/12/12 12:28:37;;;;;;;4.38;2.80;;;;;;;;;;5023949;28;20080;-70
2021/12/12 12:31:33;;;;;;;4.07;2.70;;;;;;;;;;5023726;28;20061;-70
2021/12/12 12:34:32;;;;;;;3.20;2.08;;;;;;;;;;5023928;28;20030;-71
2021/12/12 12:37:10;;;;;;;3.75;2.33;;;;;;;;;;5023785;28;20064;-72
2021/12/12 12:40:13;;;;;;;3.53;2.03;;;;;;;;;;5023984;28;20036;-72
2021/12/12 12:43:07;;;;;;;3.85;2.38;;;;;;;;;;5023861;28;20026;-71
2021/12/12 12:45:35;;;;;;;4.80;1.95;;;;;;;;;;5023702;28;20057;-71
2021/12/12 12:48:13;;;;;;;2.35;1.58;;;;;;;;;;5023535;28;20046;-70
2021/12/12 12:51:16;;;;;;;3.20;1.77;;;;;;;;;;5024005;28;20042;-72
2021/12/12 12:54:16;;;;;;;3.30;2.08;;;;;;;;;;5023385;28;20033;-70
2021/12/12 12:57:07;;;;;;;2.25;1.60;;;;;;;;;;5023809;28;20057;-71
2021/12/12 13:00:09;;;;;;;2.42;1.75;;;;;;;;;;5023942;28;20026;-70
2021/12/12 13:02:44;;;;;;;3.08;1.67;;;;;;;;;;5023770;28;20253;-71
2021/12/12 13:05:49;;;;;;;2.75;1.67;;;;;;;;;;5023624;28;20359;-70
2021/12/12 13:08:48;;;;;;;2.40;1.63;;;;;;;;;;5027242;28;20053;-72
2021/12/12 13:11:35;;;;;;;3.42;1.70;;;;;;;;;;5009509;28;20038;-71
2021/12/12 13:14:31;;;;;;;2.10;1.40;;;;;;;;;;4999086;28;20129;-70
2021/12/12 13:17:31;;;;;;;3.72;1.80;;;;;;;;;;5027082;28;20030;-70
2021/12/12 13:20:25;;;;;;;2.40;1.50;;;;;;;;;;5027162;28;20375;-70
2021/12/12 13:23:23;;;;;;;3.03;1.50;;;;;;;;;;5009254;28;20034;-70
2021/12/12 13:26:03;;;;;;;3.15;1.60;;;;;;;;;;4976921;28;20037;-71
2021/12/12 13:28:52;;;;;;;3.28;1.77;;;;;;;;;;5009617;28;20036;-70
2021/12/12 13:31:27;;;;;;;2.72;1.80;;;;;;;;;;5018151;28;20153;-70
2021/12/12 13:34:35;;;;;;;2.20;1.55;;;;;;;;;;5009368;28;20050;-71
2021/12/12 13:37:39;;;;;;;2.15;1.40;;;;;;;;;;4997483;28;20045;-71
2021/12/12 13:40:13;;;;;;;2.70;1.40;;;;;;;;;;5016059;28;20052;-71
2021/12/12 13:42:57;;;;;;;2.78;1.63;;;;;;;;;;5008816;28;20045;-71
2021/12/12 13:45:32;;;;;;;2.45;1.38;;;;;;;;;;5009067;28;20509;-71
2021/12/12 13:48:06;;;;;;;2.08;1.50;;;;;;;;;;5026135;28;20053;-72
2021/12/12 13:50:43;;;;;;;2.35;1.60;;;;;;;;;;5025555;28;20083;-72
2021/12/12 13:53:21;;;;;;;4.18;2.50;;;;;;;;;;5025229;28;20036;-71
2021/12/12 13:56:02;;;;;;;5.47;2.38;;;;;;;;;;5007590;28;20063;-71
2021/12/12 13:58:40;;;;;;;3.42;2.13;;;;;;;;;;5007465;28;20093;-71
2021/12/12 14:01:18;;;;;;;4.30;2.30;;;;;;;;;;5025226;28;20430;-72
2021/12/12 14:03:59;;;;;;;4.00;2.60;;;;;;;;;;5025137;28;20037;-72
2021/12/12 14:06:26;;;;;;;4.40;2.80;;;;;;;;;;5025141;28;20021;-72
2021/12/12 14:09:03;;;;;;;4.28;2.72;;;;;;;;;;5025003;28;20394;-70
2021/12/12 14:11:34;;;;;;;4.60;2.40;;;;;;;;;;5007335;28;20034;-71
2021/12/12 14:14:03;;;;;;;3.97;2.53;;;;;;;;;;5025035;28;20030;-71
2021/12/12 14:16:45;;;;;;;3.88;2.30;;;;;;;;;;5024477;28;20093;-71
2021/12/12 14:19:15;;;;;;;3.40;2.30;;;;;;;;;;5006856;28;20025;-71
2021/12/12 14:21:42;;;;;;;4.47;2.40;;;;;;;;;;5024828;28;20030;-74
2021/12/12 14:24:09;;;;;;;4.28;2.58;;;;;;;;;;5006888;28;20098;-71
2021/12/12 14:26:39;;;;;;;4.63;2.88;;;;;;;;;;5024865;28;20030;-72
2021/12/12 14:29:09;;;;;;;5.20;2.72;;;;;;;;;;5007045;28;20041;-71
2021/12/12 14:31:41;;;;;;;5.60;3.28;;;;;;;;;;5024684;28;20050;-72
2021/12/12 14:34:15;;;;;;;4.55;2.58;;;;;;;;;;5024679;28;20109;-71
2021/12/12 14:36:48;;;;;;;4.97;2.65;;;;;;;;;;5007101;28;20502;-71
2021/12/12 14:39:15;;;;;;;3.78;2.53;;;;;;;;;;5024884;28;20034;-70
2021/12/12 14:41:46;;;;;;;4.13;2.47;;;;;;;;;;5006984;28;20057;-71
2021/12/12 14:44:21;;;;;;;4.50;2.67;;;;;;;;;;5024375;28;20033;-70
2021/12/12 14:46:51;;;;;;;4.78;2.65;;;;;;;;;;5024585;28;20030;-72
2021/12/12 14:49:20;;;;;;;4.88;2.83;;;;;;;;;;4960257;28;1348950;-72
2021/12/12 14:52:07;;;;;;;4.45;2.67;;;;;;;;;;5025161;28;20042;-72
2021/12/12 14:54:41;;;;;;;5.50;2.60;;;;;;;;;;5007638;28;20038;-72
2021/12/12 14:57:13;;;;;;;5.10;2.72;;;;;;;;;;5025227;28;20038;-70
2021/12/12 14:59:41;;;;;;;5.43;2.90;;;;;;;;;;5025377;28;20045;-70
2021/12/12 15:02:18;;;;;;;4.70;2.90;;;;;;;;;;5025132;28;20285;-73
2021/12/12 15:04:58;;;;;;;4.32;2.90;;;;;;;;;;5025294;28;20042;-74
2021/12/12 15:07:25;;;;;;;5.40;2.90;;;;;;;;;;5024932;28;20030;-72
2021/12/12 15:10:04;;;;;;;5.05;2.90;;;;;;;;;;5025105;28;20045;-72
2021/12/12 15:12:35;;;;;;;4.63;2.60;;;;;;;;;;5023862;28;20049;-71
2021/12/12 15:15:03;;;;;;;6.32;3.17;;;;;;;;;;5023904;28;20048;-72
2021/12/12 15:17:29;;;;;;;8.15;3.05;;;;;;;;;;5024581;28;20026;-73
2021/12/12 15:20:08;;;;;;;4.25;2.70;;;;;;;;;;5006989;28;20030;-72
2021/12/12 15:22:41;;;;;;;4.70;2.50;;;;;;;;;;5006841;28;20058;-72
2021/12/12 15:25:15;;;;;;;4.55;2.72;;;;;;;;;;5024826;28;20118;-71
2021/12/12 15:27:44;;;;;;;3.42;2.10;;;;;;;;;;5024822;28;20033;-73
2021/12/12 15:30:25;;;;;;;4.93;3.25;;;;;;;;;;5024467;28;20259;-72
2021/12/12 15:32:55;;;;;;;5.35;2.88;;;;;;;;;;5006838;28;20061;-73
2021/12/12 15:35:25;;;;;;;5.20;3.13;;;;;;;;;;5024646;28;20033;-73